createdAt,value
2018-10-06T00:00:42.929Z,1006.94
2018-10-06T00:01:42.917Z,1006.96
2018-10-06T00:02:42.931Z,1006.92
2018-10-06T00:03:42.897Z,1006.93
2018-10-06T00:04:42.900Z,1006.93
2018-10-06T00:05:42.873Z,1006.86
2018-10-06T00:06:42.862Z,1006.90
2018-10-06T00:07:42.849Z,1006.91
2018-10-06T00:08:42.913Z,1006.88
2018-10-06T00:09:42.850Z,1006.87
2018-10-06T00:10:42.833Z,1006.87
2018-10-06T00:11:42.810Z,1006.85
2018-10-06T00:12:42.814Z,1006.85
2018-10-06T00:13:42.836Z,1006.79
2018-10-06T00:14:42.803Z,1006.83
2018-10-06T00:15:42.759Z,1006.84
2018-10-06T00:16:42.833Z,1006.83
2018-10-06T00:17:42.735Z,1006.81
2018-10-06T00:18:42.789Z,1006.80
2018-10-06T00:19:42.713Z,1006.81
2018-10-06T00:20:42.703Z,1006.72
2018-10-06T00:21:42.723Z,1006.80
2018-10-06T00:22:42.697Z,1006.74
2018-10-06T00:23:42.669Z,1006.71
2018-10-06T00:24:42.660Z,1006.68
2018-10-06T00:25:50.647Z,1006.70
2018-10-06T00:26:42.640Z,1006.69
2018-10-06T00:27:42.721Z,1006.68
2018-10-06T00:28:42.764Z,1006.69
2018-10-06T00:29:42.640Z,1006.68
2018-10-06T00:30:42.727Z,1006.71
2018-10-06T00:31:42.585Z,1006.70
2018-10-06T00:32:42.662Z,1006.73
2018-10-06T00:33:42.560Z,1006.71
2018-10-06T00:34:42.667Z,1006.69
2018-10-06T00:35:42.544Z,1006.71
2018-10-06T00:36:42.525Z,1006.71
2018-10-06T00:37:42.514Z,1006.70
2018-10-06T00:38:50.462Z,1006.68
2018-10-06T00:39:42.498Z,1006.67
2018-10-06T00:40:42.543Z,1006.65
2018-10-06T00:41:42.569Z,1006.60
2018-10-06T00:42:42.477Z,1006.62
2018-10-06T00:43:42.480Z,1006.59
2018-10-06T00:44:42.470Z,1006.59
2018-10-06T00:45:42.420Z,1006.66
2018-10-06T00:46:42.460Z,1006.60
2018-10-06T00:47:42.399Z,1006.64
2018-10-06T00:48:42.447Z,1006.65
2018-10-06T00:49:42.377Z,1006.62
2018-10-06T00:50:42.459Z,1006.65
2018-10-06T00:51:42.356Z,1006.61
2018-10-06T00:52:51.451Z,1006.64
2018-10-06T00:53:42.421Z,1006.65
2018-10-06T00:54:42.348Z,1006.63
2018-10-06T00:55:42.443Z,1006.60
2018-10-06T00:56:42.350Z,1006.59
2018-10-06T00:57:42.285Z,1006.57
2018-10-06T00:58:42.356Z,1006.53
2018-10-06T00:59:42.262Z,1006.56
2018-10-06T01:00:42.278Z,1006.51
2018-10-06T01:01:42.239Z,1006.54
2018-10-06T01:02:42.248Z,1006.49
2018-10-06T01:03:42.236Z,1006.51
2018-10-06T01:04:42.225Z,1006.51
2018-10-06T01:05:50.362Z,1006.49
2018-10-06T01:06:42.238Z,1006.49
2018-10-06T01:07:42.173Z,1006.48
2018-10-06T01:08:42.199Z,1006.45
2018-10-06T01:09:42.164Z,1006.51
2018-10-06T01:10:42.157Z,1006.44
2018-10-06T01:11:42.279Z,1006.43
2018-10-06T01:12:42.156Z,1006.44
2018-10-06T01:13:42.206Z,1006.37
2018-10-06T01:14:42.100Z,1006.43
2018-10-06T01:15:42.080Z,1006.39
2018-10-06T01:16:42.088Z,1006.38
2018-10-06T01:17:42.056Z,1006.35
2018-10-06T01:18:42.045Z,1006.32
2018-10-06T01:19:42.047Z,1006.33
2018-10-06T01:20:42.069Z,1006.28
2018-10-06T01:21:42.014Z,1006.22
2018-10-06T01:22:42.019Z,1006.28
2018-10-06T01:23:41.987Z,1006.29
2018-10-06T01:24:41.979Z,1006.26
2018-10-06T01:25:41.993Z,1006.30
2018-10-06T01:26:41.954Z,1006.29
2018-10-06T01:27:41.943Z,1006.23
2018-10-06T01:28:41.951Z,1006.23
2018-10-06T01:29:41.917Z,1006.21
2018-10-06T01:30:41.907Z,1006.16
2018-10-06T01:31:41.915Z,1006.14
2018-10-06T01:32:50.640Z,1006.17
2018-10-06T01:33:41.902Z,1006.20
2018-10-06T01:34:41.900Z,1006.19
2018-10-06T01:35:41.900Z,1006.13
2018-10-06T01:36:41.889Z,1006.15
2018-10-06T01:37:41.841Z,1006.14
2018-10-06T01:38:41.818Z,1006.16
2018-10-06T01:39:41.826Z,1006.17
2018-10-06T01:40:41.886Z,1006.20
2018-10-06T01:41:41.783Z,1006.16
2018-10-06T01:42:41.789Z,1006.16
2018-10-06T01:43:41.775Z,1006.17
2018-10-06T01:44:41.773Z,1006.18
2018-10-06T01:45:41.788Z,1006.16
2018-10-06T01:46:49.370Z,1006.20
2018-10-06T01:47:41.741Z,1006.23
2018-10-06T01:48:41.721Z,1006.20
2018-10-06T01:49:41.801Z,1006.16
2018-10-06T01:50:41.693Z,1006.20
2018-10-06T01:51:41.669Z,1006.19
2018-10-06T01:52:41.826Z,1006.17
2018-10-06T01:53:41.741Z,1006.14
2018-10-06T01:54:41.691Z,1006.12
2018-10-06T01:55:41.729Z,1006.10
2018-10-06T01:56:41.619Z,1006.06
2018-10-06T01:57:41.621Z,1006.15
2018-10-06T01:58:41.609Z,1006.10
2018-10-06T01:59:49.601Z,1006.07
2018-10-06T02:00:41.567Z,1006.08
2018-10-06T02:01:41.589Z,1006.07
2018-10-06T02:02:41.657Z,1006.02
2018-10-06T02:03:41.608Z,1006.02
2018-10-06T02:04:41.643Z,1006.03
2018-10-06T02:05:41.528Z,1005.97
2018-10-06T02:06:41.502Z,1005.99
2018-10-06T02:07:41.514Z,1005.97
2018-10-06T02:08:41.513Z,1005.98
2018-10-06T02:09:41.465Z,1005.97
2018-10-06T02:10:41.469Z,1005.95
2018-10-06T02:11:41.502Z,1005.97
2018-10-06T02:12:41.494Z,1005.93
2018-10-06T02:13:49.038Z,1005.87
2018-10-06T02:14:41.453Z,1005.93
2018-10-06T02:15:41.407Z,1005.89
2018-10-06T02:16:41.449Z,1005.86
2018-10-06T02:17:41.474Z,1005.87
2018-10-06T02:18:41.403Z,1005.86
2018-10-06T02:19:41.471Z,1005.83
2018-10-06T02:20:41.340Z,1005.83
2018-10-06T02:21:41.364Z,1005.81
2018-10-06T02:22:41.345Z,1005.77
2018-10-06T02:23:41.325Z,1005.80
2018-10-06T02:24:41.314Z,1005.74
2018-10-06T02:25:41.344Z,1005.74
2018-10-06T02:26:41.276Z,1005.74
2018-10-06T02:27:41.260Z,1005.68
2018-10-06T02:28:41.265Z,1005.68
2018-10-06T02:29:41.241Z,1005.60
2018-10-06T02:30:41.252Z,1005.62
2018-10-06T02:31:41.217Z,1005.61
2018-10-06T02:32:41.269Z,1005.61
2018-10-06T02:33:41.236Z,1005.56
2018-10-06T02:34:41.201Z,1005.54
2018-10-06T02:35:41.171Z,1005.55
2018-10-06T02:36:41.216Z,1005.55
2018-10-06T02:37:41.146Z,1005.51
2018-10-06T02:38:41.140Z,1005.48
2018-10-06T02:39:41.152Z,1005.51
2018-10-06T02:40:41.276Z,1005.55
2018-10-06T02:41:41.115Z,1005.54
2018-10-06T02:42:41.090Z,1005.53
2018-10-06T02:43:41.078Z,1005.55
2018-10-06T02:44:41.079Z,1005.56
2018-10-06T02:45:41.071Z,1005.53
2018-10-06T02:46:41.063Z,1005.57
2018-10-06T02:47:41.033Z,1005.59
2018-10-06T02:48:41.036Z,1005.64
2018-10-06T02:49:41.015Z,1005.59
2018-10-06T02:50:41.020Z,1005.64
2018-10-06T02:51:48.679Z,1005.61
2018-10-06T02:52:41.132Z,1005.62
2018-10-06T02:53:40.992Z,1005.57
2018-10-06T02:54:40.968Z,1005.57
2018-10-06T02:55:40.964Z,1005.61
2018-10-06T02:56:40.950Z,1005.62
2018-10-06T02:57:40.987Z,1005.61
2018-10-06T02:58:40.951Z,1005.62
2018-10-06T02:59:40.980Z,1005.61
2018-10-06T03:00:40.932Z,1005.59
2018-10-06T03:01:40.875Z,1005.57
2018-10-06T03:02:40.897Z,1005.57
2018-10-06T03:03:40.867Z,1005.55
2018-10-06T03:04:40.843Z,1005.54
2018-10-06T03:05:40.941Z,1005.54
2018-10-06T03:06:40.822Z,1005.51
2018-10-06T03:07:40.805Z,1005.52
2018-10-06T03:08:40.795Z,1005.46
2018-10-06T03:09:40.839Z,1005.47
2018-10-06T03:10:48.954Z,1005.49
2018-10-06T03:11:40.901Z,1005.45
2018-10-06T03:12:40.749Z,1005.49
2018-10-06T03:13:40.763Z,1005.43
2018-10-06T03:14:40.841Z,1005.49
2018-10-06T03:15:40.853Z,1005.50
2018-10-06T03:16:40.742Z,1005.44
2018-10-06T03:17:40.743Z,1005.47
2018-10-06T03:18:40.684Z,1005.42
2018-10-06T03:19:40.688Z,1005.43
2018-10-06T03:20:40.712Z,1005.39
2018-10-06T03:21:40.722Z,1005.39
2018-10-06T03:22:40.640Z,1005.40
2018-10-06T03:23:40.624Z,1005.45
2018-10-06T03:24:40.615Z,1005.42
2018-10-06T03:25:40.644Z,1005.45
2018-10-06T03:26:40.627Z,1005.50
2018-10-06T03:27:40.618Z,1005.45
2018-10-06T03:28:40.573Z,1005.43
2018-10-06T03:29:48.614Z,1005.47
2018-10-06T03:30:40.640Z,1005.44
2018-10-06T03:31:40.559Z,1005.44
2018-10-06T03:32:40.558Z,1005.42
2018-10-06T03:33:40.538Z,1005.44
2018-10-06T03:34:40.540Z,1005.45
2018-10-06T03:35:40.489Z,1005.48
2018-10-06T03:36:40.503Z,1005.46
2018-10-06T03:37:40.467Z,1005.50
2018-10-06T03:38:40.457Z,1005.47
2018-10-06T03:39:40.460Z,1005.48
2018-10-06T03:40:40.457Z,1005.49
2018-10-06T03:41:40.420Z,1005.46
2018-10-06T03:42:40.410Z,1005.45
2018-10-06T03:43:40.412Z,1005.47
2018-10-06T03:44:40.388Z,1005.46
2018-10-06T03:45:40.397Z,1005.43
2018-10-06T03:46:40.452Z,1005.38
2018-10-06T03:47:40.351Z,1005.39
2018-10-06T03:48:48.310Z,1005.41
2018-10-06T03:49:40.365Z,1005.39
2018-10-06T03:50:40.367Z,1005.36
2018-10-06T03:51:40.346Z,1005.36
2018-10-06T03:52:40.325Z,1005.35
2018-10-06T03:53:40.317Z,1005.31
2018-10-06T03:54:40.274Z,1005.29
2018-10-06T03:55:40.298Z,1005.26
2018-10-06T03:56:40.250Z,1005.27
2018-10-06T03:57:40.263Z,1005.23
2018-10-06T03:58:40.265Z,1005.22
2018-10-06T03:59:40.216Z,1005.19
2018-10-06T04:00:40.206Z,1005.18
2018-10-06T04:01:40.199Z,1005.14
2018-10-06T04:02:40.186Z,1005.12
2018-10-06T04:03:40.285Z,1005.14
2018-10-06T04:04:40.161Z,1005.12
2018-10-06T04:05:40.150Z,1005.10
2018-10-06T04:06:40.138Z,1005.11
2018-10-06T04:07:47.807Z,1005.10
2018-10-06T04:08:40.156Z,1005.07
2018-10-06T04:09:40.135Z,1005.07
2018-10-06T04:10:40.113Z,1005.07
2018-10-06T04:11:40.083Z,1005.12
2018-10-06T04:12:40.133Z,1005.09
2018-10-06T04:13:40.059Z,1005.06
2018-10-06T04:14:40.049Z,1005.12
2018-10-06T04:15:40.080Z,1005.09
2018-10-06T04:16:40.083Z,1005.07
2018-10-06T04:17:40.051Z,1005.08
2018-10-06T04:18:40.120Z,1005.05
2018-10-06T04:19:40.142Z,1005.05
2018-10-06T04:20:39.996Z,1004.98
2018-10-06T04:21:39.991Z,1004.99
2018-10-06T04:22:39.989Z,1004.96
2018-10-06T04:23:39.944Z,1004.98
2018-10-06T04:24:39.931Z,1004.93
2018-10-06T04:25:39.930Z,1004.90
2018-10-06T04:26:49.142Z,1004.89
2018-10-06T04:27:40.058Z,1004.88
2018-10-06T04:28:39.996Z,1004.86
2018-10-06T04:29:39.881Z,1004.83
2018-10-06T04:30:39.902Z,1004.84
2018-10-06T04:31:39.884Z,1004.82
2018-10-06T04:32:39.881Z,1004.81
2018-10-06T04:33:39.837Z,1004.82
2018-10-06T04:34:39.822Z,1004.84
2018-10-06T04:35:39.834Z,1004.83
2018-10-06T04:36:39.799Z,1004.85
2018-10-06T04:37:39.784Z,1004.82
2018-10-06T04:38:39.796Z,1004.81
2018-10-06T04:39:39.865Z,1004.80
2018-10-06T04:40:39.750Z,1004.80
2018-10-06T04:41:39.788Z,1004.77
2018-10-06T04:42:39.727Z,1004.80
2018-10-06T04:43:39.727Z,1004.77
2018-10-06T04:44:39.759Z,1004.74
2018-10-06T04:45:39.726Z,1004.79
2018-10-06T04:46:39.681Z,1004.76
2018-10-06T04:47:39.721Z,1004.76
2018-10-06T04:48:39.659Z,1004.81
2018-10-06T04:49:39.668Z,1004.78
2018-10-06T04:50:39.665Z,1004.81
2018-10-06T04:51:39.625Z,1004.75
2018-10-06T04:52:39.616Z,1004.73
2018-10-06T04:53:39.620Z,1004.75
2018-10-06T04:54:39.593Z,1004.78
2018-10-06T04:55:39.583Z,1004.77
2018-10-06T04:56:39.591Z,1004.72
2018-10-06T04:57:39.577Z,1004.75
2018-10-06T04:58:39.546Z,1004.74
2018-10-06T04:59:39.559Z,1004.74
2018-10-06T05:00:39.527Z,1004.69
2018-10-06T05:01:39.516Z,1004.68
2018-10-06T05:02:39.540Z,1004.67
2018-10-06T05:03:39.491Z,1004.65
2018-10-06T05:04:39.482Z,1004.64
2018-10-06T05:05:39.482Z,1004.65
2018-10-06T05:06:39.460Z,1004.63
2018-10-06T05:07:39.446Z,1004.62
2018-10-06T05:08:39.450Z,1004.63
2018-10-06T05:09:39.425Z,1004.61
2018-10-06T05:10:39.422Z,1004.57
2018-10-06T05:11:39.435Z,1004.58
2018-10-06T05:12:39.389Z,1004.58
2018-10-06T05:13:39.381Z,1004.56
2018-10-06T05:14:39.406Z,1004.57
2018-10-06T05:15:39.374Z,1004.54
2018-10-06T05:16:39.352Z,1004.57
2018-10-06T05:17:39.336Z,1004.58
2018-10-06T05:18:39.334Z,1004.56
2018-10-06T05:19:39.327Z,1004.60
2018-10-06T05:20:39.322Z,1004.60
2018-10-06T05:21:39.290Z,1004.62
2018-10-06T05:22:39.276Z,1004.59
2018-10-06T05:23:39.279Z,1004.58
2018-10-06T05:24:39.297Z,1004.61
2018-10-06T05:25:39.257Z,1004.63
2018-10-06T05:26:39.252Z,1004.60
2018-10-06T05:27:47.856Z,1004.61
2018-10-06T05:28:39.279Z,1004.64
2018-10-06T05:29:39.232Z,1004.62
2018-10-06T05:30:39.189Z,1004.62
2018-10-06T05:31:39.262Z,1004.66
2018-10-06T05:32:39.200Z,1004.59
2018-10-06T05:33:39.171Z,1004.62
2018-10-06T05:34:39.156Z,1004.59
2018-10-06T05:35:39.273Z,1004.55
2018-10-06T05:36:39.227Z,1004.51
2018-10-06T05:37:39.115Z,1004.48
2018-10-06T05:38:39.136Z,1004.48
2018-10-06T05:39:39.086Z,1004.49
2018-10-06T05:40:39.087Z,1004.45
2018-10-06T05:41:39.067Z,1004.44
2018-10-06T05:42:39.085Z,1004.46
2018-10-06T05:43:39.042Z,1004.47
2018-10-06T05:44:39.045Z,1004.41
2018-10-06T05:45:39.021Z,1004.44
2018-10-06T05:46:39.025Z,1004.41
2018-10-06T05:47:39.046Z,1004.42
2018-10-06T05:48:38.985Z,1004.43
2018-10-06T05:49:38.979Z,1004.43
2018-10-06T05:50:39.009Z,1004.42
2018-10-06T05:51:39.022Z,1004.39
2018-10-06T05:52:38.940Z,1004.37
2018-10-06T05:53:38.931Z,1004.33
2018-10-06T05:54:38.940Z,1004.34
2018-10-06T05:55:50.230Z,1004.33
2018-10-06T05:56:38.917Z,1004.32
2018-10-06T05:57:38.887Z,1004.30
2018-10-06T05:58:38.944Z,1004.32
2018-10-06T05:59:38.899Z,1004.32
2018-10-06T06:00:38.925Z,1004.31
2018-10-06T06:01:38.924Z,1004.33
2018-10-06T06:02:38.838Z,1004.32
2018-10-06T06:03:38.819Z,1004.33
2018-10-06T06:04:38.805Z,1004.31
2018-10-06T06:05:38.847Z,1004.32
2018-10-06T06:06:38.782Z,1004.30
2018-10-06T06:07:38.809Z,1004.30
2018-10-06T06:08:38.762Z,1004.31
2018-10-06T06:09:46.859Z,1004.36
2018-10-06T06:10:38.772Z,1004.34
2018-10-06T06:11:38.729Z,1004.34
2018-10-06T06:12:38.764Z,1004.32
2018-10-06T06:13:38.800Z,1004.27
2018-10-06T06:14:38.745Z,1004.25
2018-10-06T06:15:38.765Z,1004.26
2018-10-06T06:16:38.674Z,1004.23
2018-10-06T06:17:38.691Z,1004.25
2018-10-06T06:18:38.688Z,1004.24
2018-10-06T06:19:38.762Z,1004.22
2018-10-06T06:20:38.629Z,1004.24
2018-10-06T06:21:38.643Z,1004.26
2018-10-06T06:22:38.605Z,1004.26
2018-10-06T06:23:46.260Z,1004.27
2018-10-06T06:24:38.607Z,1004.29
2018-10-06T06:25:38.669Z,1004.31
2018-10-06T06:26:38.582Z,1004.31
2018-10-06T06:27:38.627Z,1004.31
2018-10-06T06:28:38.551Z,1004.30
2018-10-06T06:29:38.526Z,1004.30
2018-10-06T06:30:38.531Z,1004.26
2018-10-06T06:31:38.521Z,1004.31
2018-10-06T06:32:38.491Z,1004.31
2018-10-06T06:33:38.509Z,1004.33
2018-10-06T06:34:38.472Z,1004.33
2018-10-06T06:35:38.474Z,1004.36
2018-10-06T06:36:38.446Z,1004.34
2018-10-06T06:37:38.451Z,1004.34
2018-10-06T06:38:38.443Z,1004.27
2018-10-06T06:39:38.416Z,1004.26
2018-10-06T06:40:38.401Z,1004.24
2018-10-06T06:41:38.387Z,1004.25
2018-10-06T06:42:38.392Z,1004.24
2018-10-06T06:43:38.401Z,1004.24
2018-10-06T06:44:38.544Z,1004.26
2018-10-06T06:45:38.344Z,1004.24
2018-10-06T06:46:38.333Z,1004.23
2018-10-06T06:47:38.344Z,1004.23
2018-10-06T06:48:38.311Z,1004.19
2018-10-06T06:49:38.323Z,1004.23
2018-10-06T06:50:38.288Z,1004.19
2018-10-06T06:51:46.426Z,1004.18
2018-10-06T06:52:38.347Z,1004.18
2018-10-06T06:53:38.254Z,1004.16
2018-10-06T06:54:38.310Z,1004.10
2018-10-06T06:55:38.405Z,1004.10
2018-10-06T06:56:38.294Z,1004.12
2018-10-06T06:57:38.274Z,1004.12
2018-10-06T06:58:38.201Z,1004.12
2018-10-06T06:59:38.268Z,1004.14
2018-10-06T07:00:38.175Z,1004.12
2018-10-06T07:01:38.250Z,1004.12
2018-10-06T07:02:38.180Z,1004.18
2018-10-06T07:03:38.161Z,1004.16
2018-10-06T07:04:38.135Z,1004.15
2018-10-06T07:05:38.123Z,1004.13
2018-10-06T07:06:38.139Z,1004.14
2018-10-06T07:07:38.153Z,1004.18
2018-10-06T07:08:38.089Z,1004.18
2018-10-06T07:09:38.073Z,1004.17
2018-10-06T07:10:46.141Z,1004.18
2018-10-06T07:11:38.274Z,1004.18
2018-10-06T07:12:38.077Z,1004.20
2018-10-06T07:13:38.092Z,1004.23
2018-10-06T07:14:38.057Z,1004.17
2018-10-06T07:15:38.006Z,1004.20
2018-10-06T07:16:38.119Z,1004.22
2018-10-06T07:17:38.058Z,1004.18
2018-10-06T07:18:38.249Z,1004.17
2018-10-06T07:19:38.013Z,1004.16
2018-10-06T07:20:37.949Z,1004.18
2018-10-06T07:21:37.976Z,1004.18
2018-10-06T07:22:37.995Z,1004.18
2018-10-06T07:23:37.948Z,1004.16
2018-10-06T07:24:37.960Z,1004.19
2018-10-06T07:25:38.026Z,1004.12
2018-10-06T07:26:38.017Z,1004.13
2018-10-06T07:27:37.949Z,1004.17
2018-10-06T07:28:38.008Z,1004.13
2018-10-06T07:29:46.113Z,1004.11
2018-10-06T07:30:37.945Z,1004.12
2018-10-06T07:31:38.057Z,1004.11
2018-10-06T07:32:37.930Z,1004.08
2018-10-06T07:33:37.919Z,1004.08
2018-10-06T07:34:38.100Z,1004.07
2018-10-06T07:35:37.818Z,1004.06
2018-10-06T07:36:37.772Z,1004.06
2018-10-06T07:37:37.828Z,1004.08
2018-10-06T07:38:37.796Z,1004.05
2018-10-06T07:39:37.736Z,1004.13
2018-10-06T07:40:37.724Z,1004.24
2018-10-06T07:41:37.765Z,1004.31
2018-10-06T07:42:37.699Z,1004.33
2018-10-06T07:43:37.705Z,1004.31
2018-10-06T07:44:37.681Z,1004.34
2018-10-06T07:45:37.667Z,1004.31
2018-10-06T07:46:37.809Z,1004.29
2018-10-06T07:47:37.646Z,1004.28
2018-10-06T07:48:37.665Z,1004.33
2018-10-06T07:49:45.379Z,1004.30
2018-10-06T07:50:37.641Z,1004.28
2018-10-06T07:51:37.624Z,1004.30
2018-10-06T07:52:37.912Z,1004.26
2018-10-06T07:53:37.578Z,1004.09
2018-10-06T07:54:37.563Z,1004.03
2018-10-06T07:55:37.642Z,1004.01
2018-10-06T07:56:37.602Z,1003.98
2018-10-06T07:57:37.534Z,1004.00
2018-10-06T07:58:37.526Z,1004.00
2018-10-06T07:59:37.844Z,1003.97
2018-10-06T08:00:37.626Z,1003.99
2018-10-06T08:01:37.547Z,1004.06
2018-10-06T08:02:37.540Z,1004.03
2018-10-06T08:03:37.466Z,1004.07
2018-10-06T08:04:37.542Z,1004.07
2018-10-06T08:05:37.447Z,1004.11
2018-10-06T08:06:37.431Z,1004.04
2018-10-06T08:07:37.486Z,1004.08
2018-10-06T08:08:45.084Z,1004.02
2018-10-06T08:09:37.432Z,1004.04
2018-10-06T08:10:37.686Z,1003.97
2018-10-06T08:11:37.479Z,1004.00
2018-10-06T08:12:37.567Z,1004.00
2018-10-06T08:13:37.456Z,1003.99
2018-10-06T08:14:37.342Z,1003.96
2018-10-06T08:15:37.377Z,1003.92
2018-10-06T08:16:37.326Z,1003.98
2018-10-06T08:17:37.312Z,1003.98
2018-10-06T08:18:37.349Z,1004.00
2018-10-06T08:19:37.438Z,1003.99
2018-10-06T08:20:37.279Z,1004.00
2018-10-06T08:21:37.264Z,1003.97
2018-10-06T08:22:37.253Z,1004.00
2018-10-06T08:23:37.282Z,1003.99
2018-10-06T08:24:37.287Z,1003.96
2018-10-06T08:25:37.381Z,1003.92
2018-10-06T08:26:37.213Z,1003.90
2018-10-06T08:27:44.919Z,1003.88
2018-10-06T08:28:37.226Z,1003.82
2018-10-06T08:29:37.379Z,1003.85
2018-10-06T08:30:37.256Z,1003.86
2018-10-06T08:31:37.525Z,1003.81
2018-10-06T08:32:37.401Z,1003.82
2018-10-06T08:33:37.126Z,1003.79
2018-10-06T08:34:37.265Z,1003.84
2018-10-06T08:35:37.138Z,1003.79
2018-10-06T08:36:37.093Z,1003.79
2018-10-06T08:37:37.104Z,1003.83
2018-10-06T08:38:37.115Z,1003.81
2018-10-06T08:39:37.063Z,1003.79
2018-10-06T08:40:37.051Z,1003.80
2018-10-06T08:41:37.036Z,1003.76
2018-10-06T08:42:37.091Z,1003.76
2018-10-06T08:43:37.076Z,1003.73
2018-10-06T08:44:37.003Z,1003.72
2018-10-06T08:45:36.990Z,1003.73
2018-10-06T08:46:36.982Z,1003.70
2018-10-06T08:47:45.085Z,1003.67
2018-10-06T08:48:37.031Z,1003.66
2018-10-06T08:49:37.453Z,1003.63
2018-10-06T08:50:37.007Z,1003.66
2018-10-06T08:51:37.263Z,1003.65
2018-10-06T08:52:36.955Z,1003.61
2018-10-06T08:53:37.051Z,1003.60
2018-10-06T08:54:36.961Z,1003.57
2018-10-06T08:55:36.904Z,1003.57
2018-10-06T08:56:36.867Z,1003.53
2018-10-06T08:57:36.896Z,1003.50
2018-10-06T08:58:36.844Z,1003.50
2018-10-06T08:59:36.832Z,1003.52
2018-10-06T09:00:36.863Z,1003.48
2018-10-06T09:01:36.831Z,1003.46
2018-10-06T09:02:36.868Z,1003.52
2018-10-06T09:03:36.791Z,1003.51
2018-10-06T09:04:36.955Z,1003.47
2018-10-06T09:05:36.767Z,1003.44
2018-10-06T09:06:36.811Z,1003.47
2018-10-06T09:08:56.919Z,1003.43
2018-10-06T09:09:56.896Z,1003.42
2018-10-06T09:10:57.164Z,1003.41
2018-10-06T09:11:57.344Z,1003.41
2018-10-06T09:12:56.942Z,1003.44
2018-10-06T09:13:56.977Z,1003.36
2018-10-06T09:14:56.844Z,1003.35
2018-10-06T09:15:56.959Z,1003.33
2018-10-06T09:16:56.893Z,1003.34
2018-10-06T09:17:56.811Z,1003.31
2018-10-06T09:18:56.752Z,1003.28
2018-10-06T09:19:56.740Z,1003.28
2018-10-06T09:20:56.791Z,1003.27
2018-10-06T09:21:56.819Z,1003.29
2018-10-06T09:22:56.707Z,1003.23
2018-10-06T09:23:56.694Z,1003.21
2018-10-06T09:24:56.721Z,1003.20
2018-10-06T09:25:56.676Z,1003.18
2018-10-06T09:26:56.672Z,1003.14
2018-10-06T09:27:56.680Z,1003.14
2018-10-06T09:28:56.638Z,1003.13
2018-10-06T09:29:56.629Z,1003.14
2018-10-06T09:30:56.616Z,1003.12
2018-10-06T09:31:56.637Z,1003.12
2018-10-06T09:32:56.639Z,1003.07
2018-10-06T09:33:56.583Z,1003.12
2018-10-06T09:34:56.574Z,1003.04
2018-10-06T09:35:56.564Z,1003.04
2018-10-06T09:36:56.552Z,1003.04
2018-10-06T09:37:56.565Z,1002.97
2018-10-06T09:38:56.565Z,1002.97
2018-10-06T09:39:56.521Z,1002.97
2018-10-06T09:40:56.506Z,1002.96
2018-10-06T09:41:56.652Z,1002.96
2018-10-06T09:42:56.635Z,1002.97
2018-10-06T09:43:56.494Z,1002.96
2018-10-06T09:44:56.508Z,1002.95
2018-10-06T09:46:04.598Z,1002.94
2018-10-06T09:47:05.290Z,1002.93
2018-10-06T09:47:56.609Z,1002.88
2018-10-06T09:48:56.492Z,1002.83
2018-10-06T09:49:56.482Z,1002.86
2018-10-06T09:50:56.552Z,1002.88
2018-10-06T09:51:56.462Z,1002.86
2018-10-06T09:52:56.375Z,1002.87
2018-10-06T09:53:56.362Z,1002.89
2018-10-06T09:54:56.394Z,1002.88
2018-10-06T09:55:56.524Z,1002.92
2018-10-06T09:56:56.329Z,1002.89
2018-10-06T09:57:56.319Z,1002.86
2018-10-06T09:58:56.481Z,1002.85
2018-10-06T09:59:56.296Z,1002.82
2018-10-06T10:00:56.330Z,1002.83
2018-10-06T10:01:56.315Z,1002.81
2018-10-06T10:02:56.262Z,1002.85
2018-10-06T10:03:56.252Z,1002.86
2018-10-06T10:04:56.320Z,1002.82
2018-10-06T10:06:04.273Z,1002.83
2018-10-06T10:06:56.242Z,1002.87
2018-10-06T10:07:56.231Z,1002.78
2018-10-06T10:08:56.241Z,1002.78
2018-10-06T10:09:56.302Z,1002.69
2018-10-06T10:10:56.222Z,1002.73
2018-10-06T10:11:56.162Z,1002.73
2018-10-06T10:12:56.169Z,1002.71
2018-10-06T10:13:56.140Z,1002.73
2018-10-06T10:14:56.147Z,1002.72
2018-10-06T10:15:56.132Z,1002.70
2018-10-06T10:16:56.125Z,1002.70
2018-10-06T10:17:56.172Z,1002.67
2018-10-06T10:18:56.086Z,1002.68
2018-10-06T10:19:56.076Z,1002.67
2018-10-06T10:20:56.110Z,1002.64
2018-10-06T10:21:56.076Z,1002.63
2018-10-06T10:22:56.151Z,1002.62
2018-10-06T10:23:56.133Z,1002.62
2018-10-06T10:24:56.018Z,1002.64
2018-10-06T10:25:56.188Z,1002.63
2018-10-06T10:26:56.057Z,1002.65
2018-10-06T10:27:55.998Z,1002.62
2018-10-06T10:28:56.041Z,1002.64
2018-10-06T10:29:55.964Z,1002.57
2018-10-06T10:30:55.992Z,1002.55
2018-10-06T10:31:55.946Z,1002.55
2018-10-06T10:32:55.958Z,1002.53
2018-10-06T10:33:55.952Z,1002.49
2018-10-06T10:34:55.915Z,1002.54
2018-10-06T10:35:55.899Z,1002.54
2018-10-06T10:36:55.888Z,1002.50
2018-10-06T10:37:55.878Z,1002.50
2018-10-06T10:38:55.887Z,1002.47
2018-10-06T10:39:55.893Z,1002.50
2018-10-06T10:40:55.846Z,1002.58
2018-10-06T10:41:55.838Z,1002.52
2018-10-06T10:42:55.822Z,1002.56
2018-10-06T10:43:55.908Z,1002.54
2018-10-06T10:45:05.259Z,1002.53
2018-10-06T10:45:56.002Z,1002.54
2018-10-06T10:46:55.800Z,1002.53
2018-10-06T10:47:55.798Z,1002.52
2018-10-06T10:48:55.794Z,1002.52
2018-10-06T10:49:55.898Z,1002.54
2018-10-06T10:50:55.822Z,1002.51
2018-10-06T10:51:55.733Z,1002.56
2018-10-06T10:52:55.736Z,1002.52
2018-10-06T10:53:55.770Z,1002.50
2018-10-06T10:54:55.748Z,1002.53
2018-10-06T10:55:55.681Z,1002.49
2018-10-06T10:56:55.716Z,1002.52
2018-10-06T10:57:55.699Z,1002.51
2018-10-06T10:58:55.645Z,1002.47
2018-10-06T10:59:55.759Z,1002.49
2018-10-06T11:00:55.652Z,1002.40
2018-10-06T11:01:55.613Z,1002.43
2018-10-06T11:02:55.625Z,1002.47
2018-10-06T11:04:03.633Z,1002.50
2018-10-06T11:04:55.626Z,1002.43
2018-10-06T11:05:55.724Z,1002.40
2018-10-06T11:06:55.630Z,1002.39
2018-10-06T11:07:55.638Z,1002.36
2018-10-06T11:08:55.585Z,1002.37
2018-10-06T11:09:55.525Z,1002.37
2018-10-06T11:10:55.611Z,1002.28
2018-10-06T11:11:55.514Z,1002.31
2018-10-06T11:12:55.505Z,1002.30
2018-10-06T11:13:55.525Z,1002.25
2018-10-06T11:14:55.489Z,1002.29
2018-10-06T11:15:55.458Z,1002.24
2018-10-06T11:16:55.503Z,1002.27
2018-10-06T11:17:55.436Z,1002.29
2018-10-06T11:18:55.427Z,1002.23
2018-10-06T11:19:55.424Z,1002.27
2018-10-06T11:20:55.420Z,1002.28
2018-10-06T11:21:55.460Z,1002.26
2018-10-06T11:22:55.380Z,1002.25
2018-10-06T11:23:55.372Z,1002.23
2018-10-06T11:24:55.455Z,1002.25
2018-10-06T11:25:55.370Z,1002.25
2018-10-06T11:26:55.468Z,1002.24
2018-10-06T11:27:55.340Z,1002.28
2018-10-06T11:28:55.356Z,1002.24
2018-10-06T11:29:55.302Z,1002.25
2018-10-06T11:30:55.292Z,1002.26
2018-10-06T11:31:55.282Z,1002.28
2018-10-06T11:32:55.279Z,1002.23
2018-10-06T11:33:55.257Z,1002.21
2018-10-06T11:34:55.283Z,1002.17
2018-10-06T11:35:55.239Z,1002.14
2018-10-06T11:36:55.225Z,1002.13
2018-10-06T11:37:55.331Z,1002.17
2018-10-06T11:38:55.251Z,1002.16
2018-10-06T11:39:55.193Z,1002.09
2018-10-06T11:40:55.236Z,1002.11
2018-10-06T11:41:55.169Z,1002.06
2018-10-06T11:43:03.853Z,1002.06
2018-10-06T11:43:55.177Z,1002.02
2018-10-06T11:44:55.346Z,1002.03
2018-10-06T11:45:55.187Z,1001.97
2018-10-06T11:46:55.320Z,1002.00
2018-10-06T11:47:55.131Z,1001.98
2018-10-06T11:48:55.095Z,1001.93
2018-10-06T11:49:55.129Z,1001.89
2018-10-06T11:50:55.166Z,1001.87
2018-10-06T11:51:55.060Z,1001.86
2018-10-06T11:52:55.070Z,1001.83
2018-10-06T11:53:55.126Z,1001.82
2018-10-06T11:54:55.026Z,1001.83
2018-10-06T11:55:55.012Z,1001.83
2018-10-06T11:56:55.052Z,1001.83
2018-10-06T11:57:55.011Z,1001.81
2018-10-06T11:58:55.025Z,1001.76
2018-10-06T11:59:55.061Z,1001.78
2018-10-06T12:00:54.957Z,1001.77
2018-10-06T12:01:54.947Z,1001.76
2018-10-06T12:03:02.547Z,1001.76
2018-10-06T12:03:54.968Z,1001.74
2018-10-06T12:04:54.955Z,1001.76
2018-10-06T12:05:54.956Z,1001.71
2018-10-06T12:06:54.911Z,1001.73